Columbus, IN (47201)

3:02 PM EST on March 01, 2017 (GMT -0500)
Jackson St. | | Change Station
Active Advisory: Special Statement

Elev 627 ft 39.21 °N, 85.92 °W | Updated 49 seconds ago

Overcast
Overcast
47.5 °F
Feels Like 44 °F
N
7.0
Wind Variable Wind from WSW
Gusts 8.0 mph

Today
High -- | Low -- °F
--% Chance of Precip.
Yesterday
High -- | Low -- °F
Precip. -- in
Pressure 29.75 in
Visibility 10.0 miles
Clouds Mostly Cloudy 2100 ft
Mostly Cloudy 2800 ft
Overcast 3300 ft
Windchill 44 °F
Dew Point 43 °F
Humidity 83%
Rainfall 0.60 in
Snow Depth Not available.
7:16 AM 6:36 PM
Waxing Crescent, 13% visible
METAR KBAK 011945Z 29016G31KT 10SM BKN021 BKN028 OVC033 08/07 A2975
Pressure 29.75 in
Visibility 10.0 miles
Clouds Mostly Cloudy 2100 ft
Mostly Cloudy 2800 ft
Overcast 3300 ft
Windchill 44 °F
Dew Point 43 °F
Humidity 83%
Rainfall 0.60 in
Snow Depth Not available.
7:16 AM 6:36 PM
Waxing Crescent, 13% visible
METAR KBAK 011945Z 29016G31KT 10SM BKN021 BKN028 OVC033 08/07 A2975

Get Your Daily Forecast Email!

Thanks for signing up!

Be on the lookout for a verification email in your inbox.

You'll start receiving the daily forecast at 8 AM.

×

10-Day Weather Forecast

Almanac

Astronomy

Mar. 01, 2017 Rise Set
Actual Time
Civil Twilight
Nautical Twilight
Astronomical Twilight
Moon
Length of Visible Light
Length of Day
Tomorrow will be .
, % of the Moon is Illuminated

Today's Extremes

State Highs State Lows

Community

WunderPhotos

Upload Photos

1,962,540 photos uploaded!

WunderBlog® & News

Nearby

Air Quality

  Air Quality AQ Index Pollutant
Not available.

Snow Depth

Station Depth Elevation

Earthquake Activity

City Distance Mag. Time & Date
Minimum magnitude displayed is 2.5.

Coastal Water Temperatures

Place Temperature

Stations

Nearby Weather Stations

Station Location Temp. Windchill Dew Point Humidity Wind Precip. Elev Updated Type
                   

Watches & Warnings

Special Statement
Issued: 1:14 PM EST Mar. 1, 2017 – National Weather Service

... Windy this afternoon...

Winds in central Indiana this afternoon will be west 20-30 mph,
with gusts to 40-45 mph. That's enough to affect vehicle handling
and blow around loose objects. The wind should abate this evening
as a strong low pressure system moves away from the Hoosier
state.

Jk


114 PM EST Wed Mar 1 2017

... Windy this afternoon...

Winds in central Indiana this afternoon will be west 20-30 mph,
with gusts to 40-45 mph. That's enough to affect vehicle handling
and blow around loose objects. The wind should abate this evening
as a strong low pressure system moves away from the Hoosier
state.

Jk